Time;durP1;ratioP1;P1;durP2;ratioP2;P2;SDS_P1;SDS_P2;PMS_P1;PMS_P2;Temp;Humidity;BMP_temperature;BMP_pressure;BME280_temperature;BME280_humidity;BME280_pressure;Samples;Min_cycle;Max_cycle;Signal;HPM_P1;HPM_P2
2022/10/21 00:02:19;;;;;;;7.82;5.07;;;;;;;;;;10455741;28;20057;-51
2022/10/21 00:07:20;;;;;;;8.77;4.82;;;;;;;;;;10455157;28;20467;-49
2022/10/21 00:12:20;;;;;;;7.65;5.00;;;;;;;;;;10454920;28;20036;-47
2022/10/21 00:17:20;;;;;;;7.25;5.20;;;;;;;;;;10454021;28;20053;-47
2022/10/21 00:22:21;;;;;;;7.30;4.63;;;;;;;;;;10454294;28;20036;-48
2022/10/21 00:27:21;;;;;;;8.25;5.00;;;;;;;;;;10454023;28;20041;-48
2022/10/21 00:32:21;;;;;;;8.02;5.35;;;;;;;;;;10454569;28;20041;-49
2022/10/21 00:37:21;;;;;;;7.18;4.95;;;;;;;;;;10452689;28;20358;-49
2022/10/21 00:42:27;;;;;;;8.20;4.78;;;;;;;;;;10453566;28;20465;-48
2022/10/21 00:47:27;;;;;;;5.45;4.53;;;;;;;;;;10454035;28;20121;-49
2022/10/21 00:52:30;;;;;;;6.43;4.50;;;;;;;;;;10453721;28;20104;-48
2022/10/21 00:57:32;;;;;;;5.82;4.55;;;;;;;;;;10453062;28;20264;-49
2022/10/21 01:02:32;;;;;;;5.82;4.45;;;;;;;;;;10452909;28;20108;-58
2022/10/21 01:07:33;;;;;;;6.20;4.33;;;;;;;;;;10452740;28;20175;-48
2022/10/21 01:13:06;;;;;;;7.20;4.60;;;;;;;;;;10452714;28;20469;-47
2022/10/21 01:18:21;;;;;;;7.05;4.40;;;;;;;;;;10418546;28;20040;-48
2022/10/21 01:23:44;;;;;;;6.05;4.45;;;;;;;;;;10451987;28;20041;-47
2022/10/21 01:29:03;;;;;;;4.47;4.03;;;;;;;;;;10443404;28;20083;-49
2022/10/21 01:34:09;;;;;;;4.97;4.00;;;;;;;;;;10451639;28;20033;-48
2022/10/21 01:39:28;;;;;;;4.90;4.00;;;;;;;;;;10451909;28;20025;-50
2022/10/21 01:44:40;;;;;;;5.75;4.55;;;;;;;;;;10451402;28;20106;-48
2022/10/21 01:49:56;;;;;;;6.45;4.25;;;;;;;;;;10451643;28;20160;-48
2022/10/21 01:54:59;;;;;;;7.13;4.63;;;;;;;;;;10450870;28;20155;-48
2022/10/21 02:00:00;;;;;;;7.25;4.32;;;;;;;;;;10450722;28;20032;-49
2022/10/21 02:05:03;;;;;;;6.85;4.10;;;;;;;;;;10450573;28;20064;-48
2022/10/21 02:10:04;;;;;;;5.95;4.45;;;;;;;;;;10450391;28;20530;-48
2022/10/21 02:15:06;;;;;;;5.20;3.85;;;;;;;;;;10450804;28;20377;-48
2022/10/21 02:20:08;;;;;;;6.43;3.83;;;;;;;;;;10451061;28;20033;-48
2022/10/21 02:25:13;;;;;;;5.68;4.05;;;;;;;;;;10450164;28;20041;-48
2022/10/21 02:30:14;;;;;;;6.60;4.10;;;;;;;;;;10449975;28;20025;-48
2022/10/21 02:35:20;;;;;;;5.55;3.90;;;;;;;;;;10449799;28;20029;-50
2022/10/21 02:40:23;;;;;;;10.25;4.28;;;;;;;;;;10449684;28;20568;-48
2022/10/21 02:45:23;;;;;;;5.30;3.92;;;;;;;;;;10449576;28;20377;-47
2022/10/21 02:50:23;;;;;;;4.30;3.88;;;;;;;;;;10449097;28;20115;-47
2022/10/21 02:55:24;;;;;;;7.55;4.60;;;;;;;;;;10449349;28;20460;-47
2022/10/21 03:00:24;;;;;;;5.50;4.17;;;;;;;;;;10449891;28;20033;-48
2022/10/21 03:05:24;;;;;;;7.20;4.35;;;;;;;;;;10449791;28;20029;-48
2022/10/21 03:10:24;;;;;;;5.03;4.43;;;;;;;;;;10449184;28;20028;-48
2022/10/21 03:15:25;;;;;;;6.28;4.40;;;;;;;;;;10452649;28;20370;-48
2022/10/21 03:20:25;;;;;;;6.00;3.90;;;;;;;;;;10457475;28;20101;-48
2022/10/21 03:25:25;;;;;;;4.90;4.30;;;;;;;;;;10456577;28;20167;-47
2022/10/21 03:30:26;;;;;;;4.78;4.25;;;;;;;;;;10457139;28;20084;-47
2022/10/21 03:35:26;;;;;;;4.40;3.58;;;;;;;;;;10456346;28;20036;-47
2022/10/21 03:40:28;;;;;;;5.10;3.60;;;;;;;;;;10456138;28;20618;-46
2022/10/21 03:45:29;;;;;;;4.72;3.70;;;;;;;;;;10456012;28;20021;-47
2022/10/21 03:50:29;;;;;;;4.35;3.85;;;;;;;;;;10455623;28;20029;-47
2022/10/21 03:55:29;;;;;;;5.10;3.80;;;;;;;;;;10455552;28;20021;-48
2022/10/21 04:00:30;;;;;;;4.53;4.03;;;;;;;;;;10455294;28;20029;-51
2022/10/21 04:05:30;;;;;;;5.10;3.97;;;;;;;;;;10456136;28;20575;-47
2022/10/21 04:10:30;;;;;;;7.18;3.70;;;;;;;;;;10455596;28;20254;-52
2022/10/21 04:15:30;;;;;;;3.60;3.30;;;;;;;;;;10455204;28;20089;-49
2022/10/21 04:20:31;;;;;;;4.43;3.38;;;;;;;;;;10454613;28;20037;-48
2022/10/21 04:25:31;;;;;;;8.40;3.97;;;;;;;;;;10453670;28;20515;-48
2022/10/21 04:30:31;;;;;;;5.68;3.38;;;;;;;;;;10454324;28;20033;-48
2022/10/21 04:35:32;;;;;;;6.22;3.70;;;;;;;;;;10455011;28;20453;-49
2022/10/21 04:40:32;;;;;;;7.95;4.10;;;;;;;;;;10453839;28;20472;-58
2022/10/21 04:45:32;;;;;;;10.57;4.90;;;;;;;;;;10453598;28;20028;-59
2022/10/21 04:50:34;;;;;;;7.27;4.63;;;;;;;;;;10453849;28;20025;-59
2022/10/21 04:55:37;;;;;;;5.45;4.30;;;;;;;;;;10452674;28;20024;-60
2022/10/21 05:00:37;;;;;;;6.70;4.03;;;;;;;;;;10452709;28;20192;-60
2022/10/21 05:05:37;;;;;;;15.50;4.97;;;;;;;;;;10453409;28;20028;-61
2022/10/21 05:10:38;;;;;;;7.50;4.88;;;;;;;;;;10452529;28;20052;-61
2022/10/21 05:15:38;;;;;;;12.57;5.00;;;;;;;;;;10452435;28;20028;-59
2022/10/21 05:20:38;;;;;;;7.03;4.97;;;;;;;;;;10452764;28;20031;-61
2022/10/21 05:25:38;;;;;;;6.57;5.13;;;;;;;;;;10452124;28;20496;-61
2022/10/21 05:30:39;;;;;;;7.20;5.45;;;;;;;;;;10452331;28;20367;-61
2022/10/21 05:35:39;;;;;;;6.85;5.68;;;;;;;;;;10451482;28;20032;-61
2022/10/21 05:40:39;;;;;;;9.77;5.87;;;;;;;;;;10451427;28;20080;-60
2022/10/21 05:45:39;;;;;;;7.10;5.80;;;;;;;;;;10450522;28;20088;-61
2022/10/21 05:50:40;;;;;;;9.32;6.45;;;;;;;;;;10450547;28;20021;-61
2022/10/21 05:55:40;;;;;;;8.57;6.90;;;;;;;;;;10451287;28;20086;-62
2022/10/21 06:00:40;;;;;;;32.42;8.85;;;;;;;;;;10450779;28;20039;-51
2022/10/21 06:05:41;;;;;;;18.57;7.60;;;;;;;;;;10450980;28;20025;-59
2022/10/21 06:10:41;;;;;;;24.70;8.25;;;;;;;;;;10450359;28;20029;-59
2022/10/21 06:15:41;;;;;;;30.63;8.85;;;;;;;;;;10450128;28;20036;-57
2022/10/21 06:20:41;;;;;;;20.25;7.40;;;;;;;;;;10449573;28;20032;-57
2022/10/21 06:25:42;;;;;;;18.20;8.13;;;;;;;;;;10449886;28;20045;-57
2022/10/21 06:30:43;;;;;;;13.52;7.35;;;;;;;;;;10450287;28;20535;-58
2022/10/21 06:35:43;;;;;;;23.00;7.57;;;;;;;;;;10450478;28;20031;-58
2022/10/21 06:40:44;;;;;;;23.23;7.95;;;;;;;;;;10450557;28;20033;-58
2022/10/21 06:45:44;;;;;;;11.40;7.22;;;;;;;;;;10450214;28;20108;-58
2022/10/21 06:50:44;;;;;;;18.20;7.00;;;;;;;;;;10455498;28;20441;-59
2022/10/21 07:00:55;;;;;;;23.98;8.02;;;;;;;;;;10638723;22;20091;-53
2022/10/21 07:05:59;;;;;;;10.43;6.57;;;;;;;;;;10373880;28;20257;-55
2022/10/21 07:10:59;;;;;;;14.68;7.05;;;;;;;;;;10374141;28;20866;-50
2022/10/21 07:16:00;;;;;;;14.35;7.00;;;;;;;;;;10368817;28;20117;-56
2022/10/21 07:21:08;;;;;;;13.93;6.95;;;;;;;;;;10365147;28;20076;-55
2022/10/21 07:26:08;;;;;;;10.10;7.30;;;;;;;;;;10373590;28;20038;-54
2022/10/21 07:31:08;;;;;;;11.53;6.97;;;;;;;;;;10373424;28;20453;-56
2022/10/21 07:36:11;;;;;;;9.45;6.75;;;;;;;;;;10373257;28;20018;-56
2022/10/21 07:41:14;;;;;;;12.00;7.32;;;;;;;;;;10372898;28;20037;-56
2022/10/21 07:46:15;;;;;;;8.77;7.13;;;;;;;;;;10373301;28;20025;-57
2022/10/21 07:51:17;;;;;;;10.52;7.20;;;;;;;;;;10373066;28;20029;-49
2022/10/21 07:56:22;;;;;;;12.85;7.22;;;;;;;;;;10358576;28;20033;-56
2022/10/21 08:01:22;;;;;;;13.68;7.15;;;;;;;;;;10371052;28;20046;-57
2022/10/21 08:06:23;;;;;;;9.70;6.20;;;;;;;;;;10372145;28;20034;-57
2022/10/21 08:11:25;;;;;;;8.45;6.10;;;;;;;;;;10371339;28;20029;-57
2022/10/21 08:16:26;;;;;;;9.25;6.28;;;;;;;;;;10372266;28;20117;-54
2022/10/21 08:21:26;;;;;;;9.53;6.20;;;;;;;;;;10371571;28;20354;-56
2022/10/21 08:26:27;;;;;;;14.27;6.88;;;;;;;;;;10385759;28;20566;-56
2022/10/21 08:31:27;;;;;;;9.15;5.72;;;;;;;;;;10370679;28;20504;-57
2022/10/21 08:36:27;;;;;;;8.90;6.82;;;;;;;;;;10390477;28;20366;-55
2022/10/21 08:41:27;;;;;;;9.23;6.47;;;;;;;;;;10373830;28;20033;-55
2022/10/21 08:46:34;;;;;;;9.43;6.53;;;;;;;;;;10399806;28;20142;-54
2022/10/21 08:51:36;;;;;;;8.05;5.82;;;;;;;;;;10365364;28;20038;-57
2022/10/21 08:56:37;;;;;;;13.25;6.28;;;;;;;;;;10381412;28;20584;-56
2022/10/21 09:01:41;;;;;;;17.50;6.60;;;;;;;;;;10384427;28;20080;-57
2022/10/21 09:07:00;;;;;;;10.50;6.18;;;;;;;;;;10389751;28;20037;-58
2022/10/21 09:12:06;;;;;;;11.57;5.82;;;;;;;;;;10373861;28;20030;-58
2022/10/21 09:17:36;;;;;;;9.60;5.97;;;;;;;;;;10368773;28;20025;-58
2022/10/21 09:22:43;;;;;;;12.95;5.80;;;;;;;;;;10366214;28;20061;-53
2022/10/21 09:27:44;;;;;;;8.75;6.07;;;;;;;;;;10367188;28;20452;-55
2022/10/21 09:32:49;;;;;;;7.93;6.15;;;;;;;;;;10382494;28;20053;-57
2022/10/21 09:37:56;;;;;;;10.32;6.22;;;;;;;;;;10373886;28;20025;-52
2022/10/21 09:43:00;;;;;;;8.52;5.72;;;;;;;;;;10374113;28;20034;-54
2022/10/21 09:48:06;;;;;;;8.60;5.63;;;;;;;;;;10377654;28;20030;-54
2022/10/21 09:53:21;;;;;;;8.65;5.68;;;;;;;;;;10369745;28;20026;-54
2022/10/21 09:58:28;;;;;;;7.85;5.88;;;;;;;;;;10367163;28;20042;-45
2022/10/21 10:03:33;;;;;;;12.20;6.10;;;;;;;;;;10356383;28;20033;-54
2022/10/21 10:08:38;;;;;;;11.15;5.85;;;;;;;;;;10365534;28;20042;-54
2022/10/21 10:13:38;;;;;;;7.65;5.85;;;;;;;;;;10367213;28;20543;-57
2022/10/21 10:18:38;;;;;;;8.75;5.88;;;;;;;;;;10367295;28;20041;-57
2022/10/21 10:23:50;;;;;;;9.80;5.75;;;;;;;;;;10367258;28;20056;-55
2022/10/21 10:28:51;;;;;;;13.23;6.13;;;;;;;;;;10366763;28;20034;-55
2022/10/21 10:33:56;;;;;;;15.52;6.65;;;;;;;;;;10366965;28;20037;-57
2022/10/21 10:38:58;;;;;;;8.93;5.68;;;;;;;;;;10367068;28;20181;-56
2022/10/21 10:43:58;;;;;;;8.98;5.43;;;;;;;;;;10366855;28;20022;-56
2022/10/21 10:49:16;;;;;;;9.65;6.07;;;;;;;;;;10366636;28;20034;-57
2022/10/21 10:54:18;;;;;;;7.80;5.23;;;;;;;;;;10366448;28;20041;-58
2022/10/21 10:59:27;;;;;;;8.13;5.93;;;;;;;;;;10366282;28;20228;-57
2022/10/21 11:04:37;;;;;;;8.93;5.18;;;;;;;;;;10354576;28;20108;-53
2022/10/21 11:09:37;;;;;;;9.23;5.05;;;;;;;;;;10366090;28;20045;-58
2022/10/21 11:14:38;;;;;;;9.43;5.88;;;;;;;;;;10366087;28;20511;-57
2022/10/21 11:19:57;;;;;;;7.78;5.60;;;;;;;;;;10365730;28;20117;-56
2022/10/21 11:25:13;;;;;;;7.25;5.38;;;;;;;;;;10365901;28;20505;-55
2022/10/21 11:30:18;;;;;;;5.90;4.75;;;;;;;;;;10365828;28;20026;-58
2022/10/21 11:35:28;;;;;;;5.93;5.30;;;;;;;;;;10387425;28;20107;-56
2022/10/21 11:40:31;;;;;;;6.85;4.45;;;;;;;;;;10355209;28;20033;-58
2022/10/21 11:45:48;;;;;;;8.13;5.18;;;;;;;;;;10355242;28;20463;-45
2022/10/21 11:50:48;;;;;;;6.80;5.57;;;;;;;;;;10372318;28;20092;-56
2022/10/21 11:55:49;;;;;;;9.68;5.05;;;;;;;;;;10372798;28;20565;-58
2022/10/21 12:00:49;;;;;;;7.13;4.82;;;;;;;;;;10372264;28;20507;-59
2022/10/21 12:05:59;;;;;;;6.90;5.43;;;;;;;;;;10372505;28;20045;-58
2022/10/21 12:11:00;;;;;;;7.97;5.10;;;;;;;;;;10372178;28;20032;-57
2022/10/21 12:16:05;;;;;;;6.05;5.05;;;;;;;;;;10349355;28;20121;-57
2022/10/21 12:21:05;;;;;;;7.60;5.00;;;;;;;;;;10366023;28;20021;-57
2022/10/21 12:26:11;;;;;;;7.17;5.23;;;;;;;;;;10370526;28;20037;-57
2022/10/21 12:31:30;;;;;;;7.00;4.85;;;;;;;;;;10367030;28;20029;-57
2022/10/21 12:36:37;;;;;;;9.80;5.30;;;;;;;;;;10370767;28;20038;-46
2022/10/21 12:41:38;;;;;;;7.78;4.35;;;;;;;;;;10371491;28;20036;-57
2022/10/21 12:46:42;;;;;;;8.43;5.30;;;;;;;;;;10370656;28;20029;-52
2022/10/21 12:51:47;;;;;;;9.25;5.30;;;;;;;;;;10367604;28;20031;-57
2022/10/21 12:56:49;;;;;;;9.73;5.70;;;;;;;;;;10364565;28;20014;-53
2022/10/21 13:02:04;;;;;;;6.60;5.28;;;;;;;;;;10367557;28;20041;-58
2022/10/21 13:07:24;;;;;;;5.85;4.50;;;;;;;;;;10365882;28;20049;-48
2022/10/21 13:12:29;;;;;;;6.45;4.93;;;;;;;;;;10366848;28;20029;-54
2022/10/21 13:17:31;;;;;;;7.00;4.57;;;;;;;;;;10364987;28;20084;-57
2022/10/21 13:22:39;;;;;;;10.07;4.30;;;;;;;;;;10368424;28;20133;-57
2022/10/21 13:27:39;;;;;;;7.63;4.97;;;;;;;;;;10368812;28;20040;-57
2022/10/21 13:32:40;;;;;;;6.28;4.47;;;;;;;;;;10367992;28;20560;-48
2022/10/21 13:37:42;;;;;;;6.00;4.50;;;;;;;;;;10356649;28;20519;-56
2022/10/21 13:42:52;;;;;;;8.10;4.65;;;;;;;;;;10365057;28;20042;-53
2022/10/21 13:47:57;;;;;;;5.88;4.45;;;;;;;;;;10359757;28;20032;-49
2022/10/21 13:52:58;;;;;;;9.52;4.57;;;;;;;;;;10363885;28;20084;-54
2022/10/21 13:57:58;;;;;;;6.65;4.65;;;;;;;;;;10366306;28;20670;-57
2022/10/21 14:03:00;;;;;;;8.30;4.90;;;;;;;;;;10359236;28;20540;-54
2022/10/21 14:08:01;;;;;;;9.40;5.25;;;;;;;;;;10338933;28;20038;-58
2022/10/21 14:13:03;;;;;;;7.28;5.55;;;;;;;;;;10364742;28;20026;-56
2022/10/21 14:18:03;;;;;;;13.10;5.65;;;;;;;;;;10361157;28;20037;-59
2022/10/21 14:23:05;;;;;;;9.15;4.93;;;;;;;;;;10364592;28;20029;-56
2022/10/21 14:28:06;;;;;;;10.13;5.65;;;;;;;;;;10364639;28;20105;-58
2022/10/21 14:33:13;;;;;;;15.17;6.20;;;;;;;;;;10365513;28;20453;-58
2022/10/21 14:38:25;;;;;;;6.57;5.27;;;;;;;;;;10366554;28;20083;-59
2022/10/21 14:43:31;;;;;;;11.30;5.85;;;;;;;;;;10360629;28;20066;-58
2022/10/21 14:48:33;;;;;;;10.40;6.05;;;;;;;;;;10366780;28;20033;-58
2022/10/21 14:53:34;;;;;;;11.43;5.65;;;;;;;;;;10363191;28;20096;-58
2022/10/21 14:58:36;;;;;;;11.15;5.70;;;;;;;;;;10355710;28;20046;-56
2022/10/21 15:03:38;;;;;;;13.07;5.63;;;;;;;;;;10362418;28;20117;-52
2022/10/21 15:08:42;;;;;;;15.18;6.10;;;;;;;;;;10357236;28;20030;-49
2022/10/21 15:13:54;;;;;;;12.07;5.97;;;;;;;;;;10374018;28;20030;-50
2022/10/21 15:18:54;;;;;;;13.45;6.10;;;;;;;;;;10365497;28;20045;-57
2022/10/21 15:23:56;;;;;;;11.95;6.03;;;;;;;;;;10359381;28;20022;-53
2022/10/21 15:28:56;;;;;;;12.60;6.60;;;;;;;;;;10372395;28;20034;-57
2022/10/21 15:33:57;;;;;;;15.43;5.87;;;;;;;;;;10362280;28;20030;-57
2022/10/21 15:38:57;;;;;;;14.00;5.70;;;;;;;;;;10371397;28;20420;-55
2022/10/21 15:43:59;;;;;;;15.63;6.50;;;;;;;;;;10372721;28;20493;-53
2022/10/21 15:49:05;;;;;;;20.02;6.90;;;;;;;;;;10367270;28;20034;-57
2022/10/21 15:54:05;;;;;;;15.38;6.68;;;;;;;;;;10371752;28;20474;-55
2022/10/21 15:59:07;;;;;;;14.05;6.07;;;;;;;;;;10368634;28;20054;-50
2022/10/21 16:04:08;;;;;;;12.63;5.85;;;;;;;;;;10370176;28;20036;-49
2022/10/21 16:09:08;;;;;;;12.63;6.68;;;;;;;;;;10369092;28;20041;-57
2022/10/21 16:14:13;;;;;;;13.95;6.18;;;;;;;;;;10363968;28;20363;-58
2022/10/21 16:19:14;;;;;;;16.40;5.80;;;;;;;;;;10363229;28;20029;-55
2022/10/21 16:24:14;;;;;;;10.45;5.72;;;;;;;;;;10368816;28;20061;-57
2022/10/21 16:29:16;;;;;;;14.80;6.10;;;;;;;;;;10363545;28;20490;-51
2022/10/21 16:34:16;;;;;;;13.18;5.55;;;;;;;;;;10357678;28;20454;-54
2022/10/21 16:39:18;;;;;;;12.53;5.97;;;;;;;;;;10363947;28;20045;-56
2022/10/21 16:44:18;;;;;;;12.50;6.05;;;;;;;;;;10362855;28;20447;-56
2022/10/21 16:49:20;;;;;;;11.20;5.57;;;;;;;;;;10368087;28;20030;-56
2022/10/21 16:54:21;;;;;;;10.27;6.22;;;;;;;;;;10367472;28;20088;-54
2022/10/21 16:59:22;;;;;;;11.48;5.95;;;;;;;;;;10368393;28;20214;-56
2022/10/21 17:04:22;;;;;;;18.10;7.07;;;;;;;;;;10363682;28;20034;-56
2022/10/21 17:09:22;;;;;;;20.38;7.38;;;;;;;;;;10368538;28;20109;-49
2022/10/21 17:14:23;;;;;;;24.15;6.53;;;;;;;;;;10365461;28;20377;-56
2022/10/21 17:19:23;;;;;;;24.60;6.93;;;;;;;;;;10366152;28;20029;-57
2022/10/21 17:24:24;;;;;;;15.95;6.45;;;;;;;;;;10358925;28;20030;-55
2022/10/21 17:29:24;;;;;;;17.83;7.03;;;;;;;;;;10369436;28;20544;-57
2022/10/21 17:34:26;;;;;;;23.45;6.68;;;;;;;;;;10361090;28;20095;-56
2022/10/21 17:39:27;;;;;;;18.48;6.93;;;;;;;;;;10368224;28;20038;-55
2022/10/21 17:44:27;;;;;;;15.20;6.40;;;;;;;;;;10362011;28;20053;-56
2022/10/21 17:49:27;;;;;;;13.07;5.80;;;;;;;;;;10367994;28;20034;-54
2022/10/21 17:54:28;;;;;;;15.07;5.83;;;;;;;;;;10367943;28;20026;-51
2022/10/21 17:59:29;;;;;;;8.35;5.75;;;;;;;;;;10365860;28;20452;-56
2022/10/21 18:04:32;;;;;;;14.43;6.57;;;;;;;;;;10366321;28;20030;-54
2022/10/21 18:09:32;;;;;;;15.02;6.32;;;;;;;;;;10360064;28;20042;-52
2022/10/21 18:14:32;;;;;;;10.97;5.23;;;;;;;;;;10367161;28;20034;-49
2022/10/21 18:19:33;;;;;;;11.23;5.90;;;;;;;;;;10361111;28;20030;-55
2022/10/21 18:24:33;;;;;;;12.63;5.60;;;;;;;;;;10364875;28;20029;-54
2022/10/21 18:29:34;;;;;;;14.68;5.50;;;;;;;;;;10365627;28;20489;-56
2022/10/21 18:34:34;;;;;;;11.00;5.50;;;;;;;;;;10363285;28;20580;-56
2022/10/21 18:39:34;;;;;;;9.53;5.40;;;;;;;;;;10366962;28;20030;-56
2022/10/21 18:44:34;;;;;;;11.85;5.53;;;;;;;;;;10368592;28;20025;-56
2022/10/21 18:49:35;;;;;;;13.93;5.10;;;;;;;;;;10380415;28;20025;-56
2022/10/21 18:54:35;;;;;;;9.07;5.70;;;;;;;;;;10378398;28;20432;-53
2022/10/21 18:59:35;;;;;;;13.27;4.97;;;;;;;;;;10369907;28;20048;-52
2022/10/21 19:04:36;;;;;;;8.27;5.10;;;;;;;;;;10366011;28;20404;-56
2022/10/21 19:09:36;;;;;;;11.25;5.90;;;;;;;;;;10377829;28;20049;-56
2022/10/21 19:14:36;;;;;;;10.13;4.80;;;;;;;;;;10374845;28;20081;-52
2022/10/21 19:19:36;;;;;;;8.17;4.87;;;;;;;;;;10374065;28;20068;-56
2022/10/21 19:24:37;;;;;;;10.52;4.70;;;;;;;;;;10378135;28;20049;-56
2022/10/21 19:29:37;;;;;;;8.73;5.32;;;;;;;;;;10376742;28;20033;-56
2022/10/21 19:34:37;;;;;;;12.20;4.93;;;;;;;;;;10377977;28;20117;-56
2022/10/21 19:39:38;;;;;;;10.27;4.50;;;;;;;;;;10379119;28;20040;-55
2022/10/21 19:44:38;;;;;;;12.23;5.45;;;;;;;;;;10375601;28;20488;-56
2022/10/21 19:49:39;;;;;;;11.18;5.07;;;;;;;;;;10373302;28;20583;-56
2022/10/21 19:54:39;;;;;;;8.57;4.87;;;;;;;;;;10377436;28;20377;-56
2022/10/21 19:59:39;;;;;;;8.90;5.27;;;;;;;;;;10362184;28;20057;-56
2022/10/21 20:04:39;;;;;;;4.85;4.28;;;;;;;;;;10372865;28;20041;-56
2022/10/21 20:09:40;;;;;;;9.13;5.25;;;;;;;;;;10362312;28;20042;-57
2022/10/21 20:14:41;;;;;;;7.30;5.23;;;;;;;;;;10372248;28;20029;-56
2022/10/21 20:19:41;;;;;;;6.63;4.72;;;;;;;;;;10347242;28;20021;-58
2022/10/21 20:24:41;;;;;;;8.13;4.65;;;;;;;;;;10371719;28;20451;-57
2022/10/21 20:29:42;;;;;;;7.67;5.00;;;;;;;;;;10360215;28;20164;-55
2022/10/21 20:34:42;;;;;;;8.82;4.78;;;;;;;;;;10368076;28;20538;-55
2022/10/21 20:39:42;;;;;;;9.27;5.00;;;;;;;;;;10370786;28;20025;-56
2022/10/21 20:44:43;;;;;;;8.38;4.95;;;;;;;;;;10369314;28;20018;-56
2022/10/21 20:49:43;;;;;;;8.20;5.13;;;;;;;;;;10366921;28;20107;-57
2022/10/21 20:54:43;;;;;;;12.27;5.13;;;;;;;;;;10368788;28;20034;-57
2022/10/21 20:59:43;;;;;;;10.02;5.32;;;;;;;;;;10370244;28;20053;-57
2022/10/21 21:04:44;;;;;;;12.23;5.60;;;;;;;;;;10367924;28;20042;-56
2022/10/21 21:09:44;;;;;;;11.95;5.32;;;;;;;;;;10369630;28;20036;-55
2022/10/21 21:14:44;;;;;;;15.90;5.22;;;;;;;;;;10368927;28;20026;-57
2022/10/21 21:19:44;;;;;;;6.87;4.37;;;;;;;;;;10369682;28;20061;-56
2022/10/21 21:24:45;;;;;;;10.73;5.55;;;;;;;;;;10354249;28;20108;-58
2022/10/21 21:29:45;;;;;;;9.60;5.45;;;;;;;;;;10369489;28;20034;-58
2022/10/21 21:34:53;;;;;;;13.20;4.90;;;;;;;;;;10367537;28;20057;-56
2022/10/21 21:39:53;;;;;;;8.20;4.78;;;;;;;;;;10369287;28;20033;-56
2022/10/21 21:44:53;;;;;;;14.35;5.50;;;;;;;;;;10367665;28;20022;-57
2022/10/21 21:49:53;;;;;;;10.13;5.45;;;;;;;;;;10368772;28;20029;-58
2022/10/21 21:54:55;;;;;;;9.55;4.95;;;;;;;;;;10363010;28;20045;-58
2022/10/21 21:59:56;;;;;;;10.93;5.40;;;;;;;;;;10365862;28;20061;-58
2022/10/21 22:04:56;;;;;;;10.73;5.30;;;;;;;;;;10368558;28;20507;-58
2022/10/21 22:09:56;;;;;;;8.20;5.00;;;;;;;;;;10354219;28;20604;-55
2022/10/21 22:14:56;;;;;;;10.57;5.18;;;;;;;;;;10356126;28;20037;-58
2022/10/21 22:19:57;;;;;;;7.72;4.20;;;;;;;;;;10367257;28;20025;-55
2022/10/21 22:24:57;;;;;;;5.95;4.63;;;;;;;;;;10354458;28;20026;-58
2022/10/21 22:29:57;;;;;;;6.13;4.53;;;;;;;;;;10367418;28;20385;-58
2022/10/21 22:34:57;;;;;;;8.27;4.82;;;;;;;;;;10365481;28;20189;-57
2022/10/21 22:39:58;;;;;;;11.45;5.10;;;;;;;;;;10366157;28;20033;-57
2022/10/21 22:44:58;;;;;;;10.38;5.20;;;;;;;;;;10366065;28;20220;-58
2022/10/21 22:49:58;;;;;;;8.02;4.63;;;;;;;;;;10362087;28;20022;-58
2022/10/21 22:54:58;;;;;;;7.43;4.55;;;;;;;;;;10367101;28;20038;-57
2022/10/21 22:59:59;;;;;;;9.07;4.97;;;;;;;;;;10363599;28;20050;-58
2022/10/21 23:04:59;;;;;;;8.95;4.90;;;;;;;;;;10367035;28;20034;-58
2022/10/21 23:10:00;;;;;;;11.68;5.40;;;;;;;;;;10365100;28;20030;-56
2022/10/21 23:15:00;;;;;;;6.03;4.35;;;;;;;;;;10366647;28;20032;-57
2022/10/21 23:20:00;;;;;;;9.13;4.85;;;;;;;;;;10347419;28;20033;-55
2022/10/21 23:25:01;;;;;;;8.23;4.90;;;;;;;;;;10363233;28;20088;-57
2022/10/21 23:30:01;;;;;;;8.15;4.88;;;;;;;;;;10352435;28;20038;-57
2022/10/21 23:35:01;;;;;;;8.18;4.75;;;;;;;;;;10373561;28;20065;-58
2022/10/21 23:40:02;;;;;;;7.03;5.00;;;;;;;;;;10371288;28;20041;-54
2022/10/21 23:45:03;;;;;;;6.82;4.90;;;;;;;;;;10373751;28;20029;-56
2022/10/21 23:50:04;;;;;;;7.65;4.50;;;;;;;;;;10355625;28;20034;-57
2022/10/21 23:55:05;;;;;;;6.75;4.63;;;;;;;;;;10364688;28;20416;-57
